Terminal Aerodrome Forecast
Issued by NWS

Home | Current Version | Previous Version | Text Only | Print | Product List | Glossary On
Versions: 1 2 3 4 5 6 7 8 9 10 11 12 13 14 15 16 17 18 19 20 21 22 23 24 25 26 27 28 29 30 31
675
FTUS46 KMTR 252040 AAB
TAFSFO
TAF AMD
KSFO 252040Z 2521/2624 28011KT P6SM FEW025 SCT030
     FM252200 27013KT P6SM FEW015 SCT030 SCT050
     FM260000 28018KT P6SM FEW015 FEW030 SCT050
     FM260600 25009KT P6SM FEW015 FEW030 BKN100
     FM261400 VRB04KT P6SM BKN050
     FM262000 16007KT P6SM BKN030=

USA.gov is the U.S. government's official web portal to all federal, state and local government web resources and services.